Main page
METAR-TAF:

METAR-TAF

Airports :

Al-Ahsa International Airport

Al-Hasa, Saudi Arabia

latitude: 25-18N, longitude: 049-29E, elevation: 179 m

Current weather observation

The report was made 37 minutes ago, at 21:00 UTC
Wind 5 kt from the North/Northwest
Temperature 20°C
Humidity 94%
Pressure 1014 hPa
Visibility: 3000 m
Few clouds at a height of 4000 ft
Broken clouds at a height of 10000 ft
mist

METAR: OEAH 102100Z 34005KT 3000 BR FEW040 BKN100 20/19 Q1014 NOSIG

Time: 00:37 (21:37 UTC)

Forecast

The report was made 10 hours and 37 minutes ago, at 11:00 UTC
Forecast valid from 10 at 12 UTC to 11 at 18 UTC
Wind 6 kt from the East/Northeast with gusts up to 16 kt
Visibility: 8000 m
Scattered clouds at a height of 4000 ft
Temporary
from 10 at 12 UTC to 10 at 24 UTC
Visibility: 4000 m
Few clouds at a height of 3500 ft, Cumulonimbus.
Broken clouds at a height of 4000 ft
Blowing dust, thunderstorm, rain

TAF: OEAH 101100Z 1012/1118 06006G16KT 8000 SCT040 TEMPO 1012/1024 4000 BLDU TSRA FEW035CB BKN040

Weather observations and forecasts of more than 4000 airports (METAR and TAF reports).

The available stations are represented by yellow and red dots on the map.

Hover mouse over dot to see the name of the station.

Then click to see weather observations and forecasts.

To change the map : click on the green buttons with a black cross to zoom in, on the green button with a dash to zoom out, or on the green arrows for adjacent maps.


METAR-TAF: